Details From LICJ - Palermo
To LICT - Trapani Birgi
Flight Number -
Tags Generated
Created
Modified
Stats Distance 32 nm / 60 km
Max Altitude 0 ft / 0 m
Waypoints 2
Social Downloads 2
Likes 0
Share VATSIM

Download

Looking for another format? Having issues loading an existing format? Contact us
Advertisement - Login to hide

Notes

Generated

Route

LICJ LICT

ID Type Via Altitude Latitude Longitude Leg Dist Tot Dist Heading (true) Name
O LICJ APT - 0 ft / 0 m 38.16614˚ 13.08562˚ - 0 nm - -
O LICT APT - 0 ft / 0 m 37.91882˚ 12.47582˚ 32 nm 32 nm 243° / 243° -

Altitude Profile

Advertisement - Login to hide

LICJ

Details ICAO LICJ (PMO)
Name PALERMO
Region Italy
Timezone Europe/Rome (UTC+1.0)
Stats Elevation 65 ft / 20 m (AMSL)
Location 38.177377° 13.097035°
Runways 2
Magnetic Variation 2.950° E

METAR

LICJ 161450Z 28017KT 9999 -RA BKN035 13/07 Q1010

Decode

TAF

TAF LICJ 161100Z 1612/1712 29015KT 9999 SCT030 TEMPO 1612/1620 RA BECMG 1620/1622 29020G30KT

Decode

Departure Runways

ID Width Length Bearing (true) Bearing (mag) Surface Threshold Offset Overrun Length
02 148 ft / 45 m 6,813 ft / 2,077 m 23.81° 20.86° Asphalt 10 ft / 3 m 0 ft / 0 m
07 197 ft / 60 m 10,685 ft / 3,257 m 66.82° 63.87° Asphalt 404 ft / 123 m 0 ft / 0 m
20 148 ft / 45 m 6,813 ft / 2,077 m 203.81° 200.86° Asphalt 10 ft / 3 m 0 ft / 0 m
25 197 ft / 60 m 10,685 ft / 3,257 m 246.85° 243.90° Asphalt 679 ft / 207 m 0 ft / 0 m

LICT

Details ICAO LICT (TPS)
Name TRAPANI BIRGI
Region Italy
Timezone Europe/Rome (UTC+1.0)
Stats Elevation 24 ft / 7 m (AMSL)
Location 37.911417° 12.487937°
Runways 1
Magnetic Variation 2.836° E

METAR

LICT 161455Z 31007KT 9999 -RA SCT020 12/09 Q1010 RMK OVC BKN070 VIS MIN 9999 WIND THR13 31006KT BLU

Decode

TAF

Not found

Destination Runways

ID Width Length Bearing (true) Bearing (mag) Surface Threshold Offset Overrun Length
13 148 ft / 45 m 8,827 ft / 2,691 m 127.75° 124.91° Asphalt 0 ft / 0 m 1,171 ft / 357 m
31 148 ft / 45 m 8,827 ft / 2,691 m 307.76° 304.92° Asphalt 820 ft / 250 m 983 ft / 300 m

Approach Navaids

Runway Type Ident Frequency Range Bearing (true) Bearing (mag) Slope Elevation
31 Localiser TRA 110.95 MHz 18 nm / 33 km 307.75° 304.91° - 13 ft / 4 m (AMSL)
31 Glidescope TRA 110.95 MHz 10 nm / 19 km 307.75° 304.92° 3.00° 61 ft / 19 m (AMSL)
31 DME TRA 110.95 MHz 18 nm / 33 km - - - 7 ft / 2 m (AMSL)

Popular Alternatives